createdAt,value
2016-06-25T00:00:19.692Z,1012.74
2016-06-25T00:01:19.695Z,1012.68
2016-06-25T00:02:19.698Z,1012.69
2016-06-25T00:03:19.698Z,1012.69
2016-06-25T00:04:19.706Z,1012.66
2016-06-25T00:05:19.707Z,1012.61
2016-06-25T00:06:19.713Z,1012.54
2016-06-25T00:07:19.713Z,1012.51
2016-06-25T00:08:19.714Z,1012.43
2016-06-25T00:09:19.716Z,1012.4
2016-06-25T00:10:19.720Z,1012.36
2016-06-25T00:11:19.723Z,1012.39
2016-06-25T00:12:19.736Z,1012.35
2016-06-25T00:13:19.727Z,1012.38
2016-06-25T00:14:19.736Z,1012.36
2016-06-25T00:15:19.737Z,1012.31
2016-06-25T00:16:19.736Z,1012.29
2016-06-25T00:17:19.741Z,1012.22
2016-06-25T00:18:19.742Z,1012.21
2016-06-25T00:19:19.748Z,1012.2
2016-06-25T00:20:19.763Z,1012.16
2016-06-25T00:21:19.749Z,1012.2
2016-06-25T00:22:19.751Z,1012.23
2016-06-25T00:23:19.751Z,1012.28
2016-06-25T00:24:19.766Z,1012.29
2016-06-25T00:25:19.762Z,1012.35
2016-06-25T00:26:19.766Z,1012.37
2016-06-25T00:27:19.772Z,1012.4
2016-06-25T00:28:19.771Z,1012.37
2016-06-25T00:29:19.788Z,1012.32
2016-06-25T00:30:19.772Z,1012.28
2016-06-25T00:31:19.777Z,1012.23
2016-06-25T00:32:19.781Z,1012.17
2016-06-25T00:33:19.982Z,1012.13
2016-06-25T00:34:19.789Z,1012.1
2016-06-25T00:35:19.790Z,1012.07
2016-06-25T00:36:19.799Z,1012.01
2016-06-25T00:37:19.801Z,1011.99
2016-06-25T00:38:19.793Z,1012.01
2016-06-25T00:39:19.998Z,1011.99
2016-06-25T00:40:19.809Z,1011.99
2016-06-25T00:41:19.801Z,1011.94
2016-06-25T00:42:19.806Z,1011.98
2016-06-25T00:43:19.804Z,1011.94
2016-06-25T00:44:19.812Z,1011.94
2016-06-25T00:45:19.814Z,1011.89
2016-06-25T00:46:19.826Z,1011.95
2016-06-25T00:47:19.839Z,1011.9
2016-06-25T00:48:19.823Z,1011.89
2016-06-25T00:49:19.827Z,1011.92
2016-06-25T00:50:19.823Z,1011.96
2016-06-25T00:51:19.835Z,1011.92
2016-06-25T00:52:19.831Z,1011.91
2016-06-25T00:53:19.840Z,1011.87
2016-06-25T00:54:19.835Z,1011.83
2016-06-25T00:55:19.844Z,1011.84
2016-06-25T00:56:19.841Z,1011.84
2016-06-25T00:57:19.846Z,1011.84
2016-06-25T00:58:19.845Z,1011.86
2016-06-25T00:59:19.850Z,1011.85
2016-06-25T01:00:19.858Z,1011.85
2016-06-25T01:01:20.054Z,1011.79
2016-06-25T01:02:19.858Z,1011.73
2016-06-25T01:03:19.854Z,1011.65
2016-06-25T01:04:19.859Z,1011.62
2016-06-25T01:05:19.862Z,1011.6
2016-06-25T01:06:19.875Z,1011.6
2016-06-25T01:07:20.071Z,1011.57
2016-06-25T01:08:19.876Z,1011.55
2016-06-25T01:09:19.875Z,1011.56
2016-06-25T01:10:19.878Z,1011.53
2016-06-25T01:11:19.878Z,1011.52
2016-06-25T01:12:19.893Z,1011.51
2016-06-25T01:13:19.886Z,1011.55
2016-06-25T01:14:19.890Z,1011.52
2016-06-25T01:15:19.890Z,1011.51
2016-06-25T01:16:19.897Z,1011.46
2016-06-25T01:17:19.891Z,1011.4
2016-06-25T01:18:20.095Z,1011.37
2016-06-25T01:19:19.907Z,1011.39
2016-06-25T01:20:19.903Z,1011.39
2016-06-25T01:21:20.105Z,1011.4
2016-06-25T01:22:19.904Z,1011.39
2016-06-25T01:23:19.910Z,1011.43
2016-06-25T01:24:19.912Z,1011.43
2016-06-25T01:25:19.913Z,1011.52
2016-06-25T01:26:19.914Z,1011.45
2016-06-25T01:27:19.916Z,1011.46
2016-06-25T01:28:19.922Z,1011.43
2016-06-25T01:29:19.922Z,1011.39
2016-06-25T01:30:19.928Z,1011.41
2016-06-25T01:31:19.933Z,1011.43
2016-06-25T01:32:19.936Z,1011.44
2016-06-25T01:33:19.937Z,1011.48
2016-06-25T01:34:19.942Z,1011.49
2016-06-25T01:35:19.938Z,1011.55
2016-06-25T01:36:19.941Z,1011.52
2016-06-25T01:37:19.946Z,1011.51
2016-06-25T01:38:19.949Z,1011.52
2016-06-25T01:39:19.949Z,1011.49
2016-06-25T01:40:19.953Z,1011.43
2016-06-25T01:41:19.955Z,1011.39
2016-06-25T01:42:19.955Z,1011.39
2016-06-25T01:43:19.954Z,1011.38
2016-06-25T01:44:19.963Z,1011.38
2016-06-25T01:45:19.964Z,1011.37
2016-06-25T01:46:19.966Z,1011.32
2016-06-25T01:47:19.966Z,1011.34
2016-06-25T01:48:19.970Z,1011.31
2016-06-25T01:49:19.970Z,1011.33
2016-06-25T01:50:19.976Z,1011.31
2016-06-25T01:51:19.977Z,1011.34
2016-06-25T01:52:19.979Z,1011.3
2016-06-25T01:53:19.986Z,1011.24
2016-06-25T01:54:19.983Z,1011.26
2016-06-25T01:55:19.989Z,1011.22
2016-06-25T01:56:19.989Z,1011.21
2016-06-25T01:57:20.194Z,1011.23
2016-06-25T01:58:19.993Z,1011.18
2016-06-25T01:59:20.000Z,1011.22
2016-06-25T02:00:19.998Z,1011.16
2016-06-25T02:01:20.003Z,1011.16
2016-06-25T02:02:20.005Z,1011.19
2016-06-25T02:03:20.007Z,1011.22
2016-06-25T02:04:20.012Z,1011.26
2016-06-25T02:05:20.010Z,1011.26
2016-06-25T02:06:20.012Z,1011.3
2016-06-25T02:07:20.022Z,1011.35
2016-06-25T02:08:20.015Z,1011.35
2016-06-25T02:09:20.018Z,1011.36
2016-06-25T02:10:20.022Z,1011.34
2016-06-25T02:11:20.031Z,1011.32
2016-06-25T02:12:20.026Z,1011.31
2016-06-25T02:13:20.031Z,1011.31
2016-06-25T02:14:20.036Z,1011.29
2016-06-25T02:15:20.039Z,1011.35
2016-06-25T02:16:20.033Z,1011.3
2016-06-25T02:17:20.049Z,1011.35
2016-06-25T02:18:20.039Z,1011.38
2016-06-25T02:19:20.045Z,1011.39
2016-06-25T02:20:20.049Z,1011.41
2016-06-25T02:21:20.047Z,1011.41
2016-06-25T02:22:20.048Z,1011.37
2016-06-25T02:23:20.049Z,1011.34
2016-06-25T02:24:20.053Z,1011.31
2016-06-25T02:25:20.257Z,1011.33
2016-06-25T02:26:20.077Z,1011.32
2016-06-25T02:27:20.055Z,1011.29
2016-06-25T02:28:20.065Z,1011.36
2016-06-25T02:29:20.084Z,1011.36
2016-06-25T02:30:20.063Z,1011.33
2016-06-25T02:31:20.070Z,1011.35
2016-06-25T02:32:20.078Z,1011.34
2016-06-25T02:33:20.083Z,1011.3
2016-06-25T02:34:20.077Z,1011.27
2016-06-25T02:35:20.277Z,1011.25
2016-06-25T02:36:20.078Z,1011.25
2016-06-25T02:37:20.093Z,1011.24
2016-06-25T02:38:20.083Z,1011.2
2016-06-25T02:39:20.091Z,1011.25
2016-06-25T02:40:20.090Z,1011.21
2016-06-25T02:41:20.295Z,1011.23
2016-06-25T02:42:20.298Z,1011.25
2016-06-25T02:43:20.099Z,1011.28
2016-06-25T02:44:20.102Z,1011.28
2016-06-25T02:45:20.106Z,1011.34
2016-06-25T02:46:20.104Z,1011.37
2016-06-25T02:47:20.106Z,1011.42
2016-06-25T02:48:20.109Z,1011.45
2016-06-25T02:49:20.111Z,1011.46
2016-06-25T02:50:20.111Z,1011.44
2016-06-25T02:51:20.118Z,1011.43
2016-06-25T02:52:20.119Z,1011.45
2016-06-25T02:53:20.125Z,1011.38
2016-06-25T02:54:20.121Z,1011.37
2016-06-25T02:55:20.123Z,1011.32
2016-06-25T02:56:20.122Z,1011.34
2016-06-25T02:57:20.130Z,1011.31
2016-06-25T02:58:20.127Z,1011.35
2016-06-25T02:59:20.134Z,1011.31
2016-06-25T03:00:20.135Z,1011.35
2016-06-25T03:01:20.338Z,1011.32
2016-06-25T03:02:20.152Z,1011.29
2016-06-25T03:03:20.138Z,1011.31
2016-06-25T03:04:20.139Z,1011.33
2016-06-25T03:05:20.144Z,1011.21
2016-06-25T03:06:20.145Z,1011.22
2016-06-25T03:07:20.347Z,1011.21
2016-06-25T03:08:20.149Z,1011.18
2016-06-25T03:09:20.152Z,1011.18
2016-06-25T03:10:20.153Z,1011.15
2016-06-25T03:11:20.158Z,1011.17
2016-06-25T03:12:20.175Z,1011.17
2016-06-25T03:13:20.167Z,1011.24
2016-06-25T03:14:20.160Z,1011.16
2016-06-25T03:15:20.229Z,1011.16
2016-06-25T03:16:20.167Z,1011.16
2016-06-25T03:17:20.230Z,1011.13
2016-06-25T03:18:20.230Z,1011.11
2016-06-25T03:19:20.171Z,1011.06
2016-06-25T03:20:20.234Z,1011.04
2016-06-25T03:21:20.233Z,1011.02
2016-06-25T03:22:20.251Z,1011.01
2016-06-25T03:23:20.186Z,1011.01
2016-06-25T03:24:20.187Z,1011.02
2016-06-25T03:25:20.186Z,1011.02
2016-06-25T03:26:20.189Z,1011.03
2016-06-25T03:27:20.191Z,1011.06
2016-06-25T03:28:20.198Z,1011.08
2016-06-25T03:29:20.198Z,1011.05
2016-06-25T03:30:20.202Z,1011.08
2016-06-25T03:31:20.207Z,1011.09
2016-06-25T03:32:20.200Z,1011.07
2016-06-25T03:33:20.203Z,1011.04
2016-06-25T03:34:20.209Z,1011.02
2016-06-25T03:35:20.214Z,1010.98
2016-06-25T03:36:20.209Z,1010.96
2016-06-25T03:37:20.215Z,1010.94
2016-06-25T03:38:20.217Z,1010.91
2016-06-25T03:39:20.216Z,1010.87
2016-06-25T03:40:20.215Z,1010.88
2016-06-25T03:41:20.220Z,1010.83
2016-06-25T03:42:20.226Z,1010.85
2016-06-25T03:43:20.428Z,1010.86
2016-06-25T03:44:20.226Z,1010.86
2016-06-25T03:45:20.229Z,1010.83
2016-06-25T03:46:20.237Z,1010.84
2016-06-25T03:47:20.238Z,1010.87
2016-06-25T03:48:20.239Z,1010.85
2016-06-25T03:49:20.234Z,1010.84
2016-06-25T03:50:20.242Z,1010.83
2016-06-25T03:51:20.241Z,1010.84
2016-06-25T03:52:20.246Z,1010.83
2016-06-25T03:53:20.240Z,1010.83
2016-06-25T03:54:20.257Z,1010.87
2016-06-25T03:55:20.250Z,1010.87
2016-06-25T03:56:20.254Z,1010.89
2016-06-25T03:57:20.256Z,1010.91
2016-06-25T03:58:20.255Z,1010.91
2016-06-25T03:59:20.265Z,1010.93
2016-06-25T04:00:20.261Z,1010.91
2016-06-25T04:01:20.267Z,1010.93
2016-06-25T04:02:20.263Z,1010.91
2016-06-25T04:03:20.270Z,1010.92
2016-06-25T04:04:20.273Z,1010.93
2016-06-25T04:05:20.267Z,1010.9
2016-06-25T04:06:20.269Z,1010.93
2016-06-25T04:07:20.270Z,1010.93
2016-06-25T04:08:20.279Z,1010.87
2016-06-25T04:09:20.277Z,1010.9
2016-06-25T04:10:20.279Z,1010.87
2016-06-25T04:11:20.282Z,1010.88
2016-06-25T04:12:20.282Z,1010.83
2016-06-25T04:13:20.288Z,1010.84
2016-06-25T04:14:20.291Z,1010.8
2016-06-25T04:15:20.293Z,1010.8
2016-06-25T04:16:20.295Z,1010.75
2016-06-25T04:17:20.296Z,1010.72
2016-06-25T04:18:20.298Z,1010.74
2016-06-25T04:19:20.294Z,1010.76
2016-06-25T04:20:20.301Z,1010.73
2016-06-25T04:21:20.302Z,1010.69
2016-06-25T04:22:20.308Z,1010.65
2016-06-25T04:23:20.308Z,1010.64
2016-06-25T04:24:20.307Z,1010.6
2016-06-25T04:25:20.307Z,1010.6
2016-06-25T04:26:20.310Z,1010.57
2016-06-25T04:27:20.310Z,1010.57
2016-06-25T04:28:20.317Z,1010.59
2016-06-25T04:29:20.318Z,1010.59
2016-06-25T04:30:20.517Z,1010.61
2016-06-25T04:31:20.321Z,1010.55
2016-06-25T04:32:20.330Z,1010.53
2016-06-25T04:33:20.330Z,1010.51
2016-06-25T04:34:20.331Z,1010.51
2016-06-25T04:35:20.332Z,1010.52
2016-06-25T04:36:20.331Z,1010.58
2016-06-25T04:37:20.335Z,1010.59
2016-06-25T04:38:20.334Z,1010.6
2016-06-25T04:39:20.333Z,1010.59
2016-06-25T04:40:20.339Z,1010.62
2016-06-25T04:41:20.342Z,1010.62
2016-06-25T04:42:20.349Z,1010.59
2016-06-25T04:43:20.348Z,1010.56
2016-06-25T04:44:20.348Z,1010.55
2016-06-25T04:45:20.548Z,1010.55
2016-06-25T04:46:20.351Z,1010.48
2016-06-25T04:47:20.353Z,1010.51
2016-06-25T04:48:20.353Z,1010.53
2016-06-25T04:49:20.361Z,1010.59
2016-06-25T04:50:20.359Z,1010.64
2016-06-25T04:51:20.359Z,1010.73
2016-06-25T04:52:20.361Z,1010.73
2016-06-25T04:53:20.368Z,1010.76
2016-06-25T04:54:20.366Z,1010.75
2016-06-25T04:55:20.370Z,1010.68
2016-06-25T04:56:20.371Z,1010.71
2016-06-25T04:57:20.375Z,1010.67
2016-06-25T04:58:20.392Z,1010.67
2016-06-25T04:59:20.377Z,1010.66
2016-06-25T05:00:20.378Z,1010.68
2016-06-25T05:01:20.381Z,1010.68
2016-06-25T05:02:20.380Z,1010.75
2016-06-25T05:03:20.387Z,1010.68
2016-06-25T05:04:20.385Z,1010.65
2016-06-25T05:05:20.384Z,1010.63
2016-06-25T05:06:20.597Z,1010.56
2016-06-25T05:07:20.393Z,1010.54
2016-06-25T05:08:20.391Z,1010.51
2016-06-25T05:09:20.400Z,1010.53
2016-06-25T05:10:20.596Z,1010.54
2016-06-25T05:11:20.401Z,1010.58
2016-06-25T05:12:20.398Z,1010.56
2016-06-25T05:13:20.409Z,1010.59
2016-06-25T05:14:20.407Z,1010.59
2016-06-25T05:15:20.414Z,1010.59
2016-06-25T05:16:20.406Z,1010.64
2016-06-25T05:17:20.408Z,1010.61
2016-06-25T05:18:20.412Z,1010.62
2016-06-25T05:19:20.415Z,1010.62
2016-06-25T05:20:20.421Z,1010.55
2016-06-25T05:21:20.420Z,1010.54
2016-06-25T05:22:20.420Z,1010.52
2016-06-25T05:23:20.424Z,1010.49
2016-06-25T05:24:20.426Z,1010.44
2016-06-25T05:25:20.425Z,1010.43
2016-06-25T05:26:20.430Z,1010.43
2016-06-25T05:27:20.434Z,1010.43
2016-06-25T05:28:20.430Z,1010.41
2016-06-25T05:29:20.431Z,1010.4
2016-06-25T05:30:20.433Z,1010.38
2016-06-25T05:31:20.455Z,1010.37
2016-06-25T05:32:20.438Z,1010.39
2016-06-25T05:33:20.446Z,1010.33
2016-06-25T05:34:20.446Z,1010.33
2016-06-25T05:35:20.457Z,1010.34
2016-06-25T05:36:20.443Z,1010.33
2016-06-25T05:37:20.647Z,1010.31
2016-06-25T05:38:20.449Z,1010.27
2016-06-25T05:39:20.448Z,1010.26
2016-06-25T05:40:20.651Z,1010.25
2016-06-25T05:41:20.459Z,1010.24
2016-06-25T05:42:20.461Z,1010.25
2016-06-25T05:43:20.456Z,1010.24
2016-06-25T05:44:20.456Z,1010.3
2016-06-25T05:45:20.463Z,1010.27
2016-06-25T05:46:20.670Z,1010.32
2016-06-25T05:47:20.469Z,1010.32
2016-06-25T05:48:20.471Z,1010.32
2016-06-25T05:49:20.471Z,1010.33
2016-06-25T05:50:20.470Z,1010.33
2016-06-25T05:51:20.473Z,1010.35
2016-06-25T05:52:20.475Z,1010.32
2016-06-25T05:53:20.479Z,1010.31
2016-06-25T05:54:20.480Z,1010.32
2016-06-25T05:55:20.474Z,1010.34
2016-06-25T05:56:20.483Z,1010.37
2016-06-25T05:57:20.483Z,1010.34
2016-06-25T05:58:20.481Z,1010.41
2016-06-25T05:59:20.486Z,1010.42
2016-06-25T06:00:20.489Z,1010.42
2016-06-25T06:01:20.499Z,1010.44
2016-06-25T06:02:20.691Z,1010.46
2016-06-25T06:03:20.498Z,1010.49
2016-06-25T06:04:20.497Z,1010.44
2016-06-25T06:05:20.697Z,1010.49
2016-06-25T06:06:20.498Z,1010.49
2016-06-25T06:07:20.504Z,1010.53
2016-06-25T06:08:20.501Z,1010.52
2016-06-25T06:09:20.509Z,1010.55
2016-06-25T06:10:20.511Z,1010.57
2016-06-25T06:11:20.507Z,1010.61
2016-06-25T06:12:20.508Z,1010.6
2016-06-25T06:13:20.513Z,1010.67
2016-06-25T06:14:20.514Z,1010.69
2016-06-25T06:15:20.517Z,1010.72
2016-06-25T06:16:20.523Z,1010.74
2016-06-25T06:17:20.521Z,1010.74
2016-06-25T06:18:20.523Z,1010.74
2016-06-25T06:19:20.522Z,1010.73
2016-06-25T06:20:20.526Z,1010.75
2016-06-25T06:21:20.537Z,1010.69
2016-06-25T06:22:20.530Z,1010.72
2016-06-25T06:23:20.534Z,1010.74
2016-06-25T06:24:20.531Z,1010.73
2016-06-25T06:25:20.540Z,1010.78
2016-06-25T06:26:20.534Z,1010.82
2016-06-25T06:27:20.538Z,1010.82
2016-06-25T06:28:20.540Z,1010.8
2016-06-25T06:29:20.740Z,1010.83
2016-06-25T06:30:20.541Z,1010.87
2016-06-25T06:31:20.547Z,1010.88
2016-06-25T06:32:20.551Z,1010.87
2016-06-25T06:33:20.545Z,1010.88
2016-06-25T06:34:20.548Z,1010.9
2016-06-25T06:35:20.551Z,1010.89
2016-06-25T06:36:20.554Z,1010.91
2016-06-25T06:37:20.554Z,1010.88
2016-06-25T06:38:20.759Z,1010.9
2016-06-25T06:39:20.557Z,1010.88
2016-06-25T06:40:20.564Z,1010.86
2016-06-25T06:41:20.562Z,1010.87
2016-06-25T06:42:20.558Z,1010.83
2016-06-25T06:43:20.563Z,1010.83
2016-06-25T06:44:20.569Z,1010.79
2016-06-25T06:45:20.568Z,1010.69
2016-06-25T06:46:20.570Z,1010.67
2016-06-25T06:47:20.572Z,1010.62
2016-06-25T06:48:20.569Z,1010.6
2016-06-25T06:49:20.577Z,1010.61
2016-06-25T06:50:20.580Z,1010.57
2016-06-25T06:51:20.576Z,1010.56
2016-06-25T06:52:20.577Z,1010.51
2016-06-25T06:53:20.581Z,1010.5
2016-06-25T06:54:20.582Z,1010.47
2016-06-25T06:55:20.589Z,1010.45
2016-06-25T06:56:20.595Z,1010.44
2016-06-25T06:57:20.589Z,1010.41
2016-06-25T06:58:20.591Z,1010.37
2016-06-25T06:59:20.595Z,1010.37
2016-06-25T07:00:20.595Z,1010.29
2016-06-25T07:01:20.599Z,1010.28
2016-06-25T07:02:20.601Z,1010.25
2016-06-25T07:03:20.604Z,1010.25
2016-06-25T07:04:20.599Z,1010.2
2016-06-25T07:05:20.612Z,1010.16
2016-06-25T07:06:20.807Z,1010.12
2016-06-25T07:07:20.612Z,1010.09
2016-06-25T07:08:20.601Z,1010.09
2016-06-25T07:09:20.605Z,1010
2016-06-25T07:10:20.617Z,1009.95
2016-06-25T07:11:20.612Z,1009.89
2016-06-25T07:12:20.609Z,1009.8
2016-06-25T07:13:20.617Z,1009.74
2016-06-25T07:14:20.615Z,1009.67
2016-06-25T07:15:20.619Z,1009.61
2016-06-25T07:16:20.623Z,1009.53
2016-06-25T07:17:20.624Z,1009.44
2016-06-25T07:18:20.627Z,1009.31
2016-06-25T07:19:20.631Z,1009.24
2016-06-25T07:20:20.827Z,1009.09
2016-06-25T07:21:20.629Z,1008.97
2016-06-25T07:22:20.630Z,1008.89
2016-06-25T07:23:20.638Z,1008.72
2016-06-25T07:24:20.632Z,1008.54
2016-06-25T07:25:20.640Z,1008.36
2016-06-25T07:26:20.634Z,1008.26
2016-06-25T07:27:20.641Z,1008.11
2016-06-25T07:28:20.641Z,1007.97
2016-06-25T07:29:20.642Z,1007.88
2016-06-25T07:30:20.646Z,1007.89
2016-06-25T07:31:20.648Z,1007.89
2016-06-25T07:32:20.646Z,1007.89
2016-06-25T07:33:20.653Z,1007.9
2016-06-25T07:34:20.648Z,1007.91
2016-06-25T07:35:20.651Z,1008.01
2016-06-25T07:36:20.656Z,1008.06
2016-06-25T07:37:20.656Z,1008.23
2016-06-25T07:38:20.653Z,1008.38
2016-06-25T07:39:20.661Z,1008.57
2016-06-25T07:40:20.664Z,1008.69
2016-06-25T07:41:20.665Z,1008.84
2016-06-25T07:42:20.662Z,1008.88
2016-06-25T07:43:20.669Z,1009.03
2016-06-25T07:44:20.666Z,1009.14
2016-06-25T07:45:20.664Z,1009.21
2016-06-25T07:46:20.665Z,1009.36
2016-06-25T07:47:20.679Z,1009.42
2016-06-25T07:48:20.671Z,1009.52
2016-06-25T07:49:20.675Z,1009.55
2016-06-25T07:50:20.678Z,1009.59
2016-06-25T07:51:20.684Z,1009.65
2016-06-25T07:52:20.678Z,1009.68
2016-06-25T07:53:20.683Z,1009.73
2016-06-25T07:54:20.683Z,1009.77
2016-06-25T07:55:20.686Z,1009.75
2016-06-25T07:56:20.682Z,1009.8
2016-06-25T07:57:20.687Z,1009.78
2016-06-25T07:58:20.689Z,1009.81
2016-06-25T07:59:20.699Z,1009.86
2016-06-25T08:00:20.689Z,1009.84
2016-06-25T08:01:20.694Z,1009.81
2016-06-25T08:02:20.745Z,1009.74
2016-06-25T08:03:20.694Z,1009.68
2016-06-25T08:04:20.700Z,1009.64
2016-06-25T08:05:20.707Z,1009.56
2016-06-25T08:06:20.698Z,1009.51
2016-06-25T08:07:20.702Z,1009.5
2016-06-25T08:08:20.706Z,1009.5
2016-06-25T08:09:20.709Z,1009.58
2016-06-25T08:10:20.707Z,1009.63
2016-06-25T08:11:20.715Z,1009.68
2016-06-25T08:12:20.714Z,1009.69
2016-06-25T08:13:20.713Z,1009.7
2016-06-25T08:14:20.911Z,1009.74
2016-06-25T08:15:20.717Z,1009.77
2016-06-25T08:16:20.716Z,1009.77
2016-06-25T08:17:20.718Z,1009.79
2016-06-25T08:18:20.722Z,1009.78
2016-06-25T08:19:20.722Z,1009.82
2016-06-25T08:20:20.719Z,1009.88
2016-06-25T08:21:20.724Z,1009.87
2016-06-25T08:22:20.925Z,1009.85
2016-06-25T08:23:20.740Z,1009.85
2016-06-25T08:24:20.722Z,1009.8
2016-06-25T08:25:20.748Z,1009.77
2016-06-25T08:26:20.741Z,1009.74
2016-06-25T08:27:20.738Z,1009.72
2016-06-25T08:28:20.737Z,1009.71
2016-06-25T08:29:20.738Z,1009.7
2016-06-25T08:30:20.737Z,1009.64
2016-06-25T08:31:20.739Z,1009.6
2016-06-25T08:32:20.742Z,1009.48
2016-06-25T08:33:20.743Z,1009.39
2016-06-25T08:34:20.742Z,1009.3
2016-06-25T08:35:20.747Z,1009.15
2016-06-25T08:36:20.748Z,1009.06
2016-06-25T08:37:20.748Z,1008.92
2016-06-25T08:38:20.953Z,1008.88
2016-06-25T08:39:20.750Z,1008.79
2016-06-25T08:40:20.752Z,1008.79
2016-06-25T08:41:20.762Z,1008.73
2016-06-25T08:42:20.756Z,1008.73
2016-06-25T08:43:20.762Z,1008.72
2016-06-25T08:44:20.757Z,1008.71
2016-06-25T08:45:20.759Z,1008.75
2016-06-25T08:46:20.762Z,1008.81
2016-06-25T08:47:20.771Z,1008.84
2016-06-25T08:48:20.965Z,1008.9
2016-06-25T08:49:20.768Z,1008.88
2016-06-25T08:50:20.766Z,1008.93
2016-06-25T08:51:20.765Z,1009
2016-06-25T08:52:20.772Z,1009.08
2016-06-25T08:53:20.977Z,1009.13
2016-06-25T08:54:20.767Z,1009.18
2016-06-25T08:55:20.776Z,1009.23
2016-06-25T08:56:20.778Z,1009.25
2016-06-25T08:57:20.781Z,1009.28
2016-06-25T08:58:20.781Z,1009.33
2016-06-25T08:59:20.789Z,1009.39
2016-06-25T09:00:20.987Z,1009.4
2016-06-25T09:01:20.781Z,1009.42
2016-06-25T09:02:20.831Z,1009.5
2016-06-25T09:03:20.990Z,1009.52
2016-06-25T09:04:20.792Z,1009.57
2016-06-25T09:05:20.800Z,1009.59
2016-06-25T09:06:20.788Z,1009.58
2016-06-25T09:07:20.793Z,1009.6
2016-06-25T09:08:20.794Z,1009.59
2016-06-25T09:09:20.799Z,1009.6
2016-06-25T09:10:20.800Z,1009.59
2016-06-25T09:11:20.804Z,1009.54
2016-06-25T09:12:20.802Z,1009.6
2016-06-25T09:13:20.801Z,1009.55
2016-06-25T09:14:20.806Z,1009.57
2016-06-25T09:15:20.803Z,1009.56
2016-06-25T09:16:20.802Z,1009.5
2016-06-25T09:17:20.804Z,1009.53
2016-06-25T09:18:20.809Z,1009.53
2016-06-25T09:19:20.812Z,1009.53
2016-06-25T09:20:20.809Z,1009.5
2016-06-25T09:21:20.819Z,1009.54
2016-06-25T09:22:20.834Z,1009.55
2016-06-25T09:23:20.812Z,1009.57
2016-06-25T09:24:20.813Z,1009.56
2016-06-25T09:25:20.824Z,1009.61
2016-06-25T09:26:20.820Z,1009.63
2016-06-25T09:27:20.822Z,1009.67
2016-06-25T09:28:20.822Z,1009.64
2016-06-25T09:29:20.827Z,1009.68
2016-06-25T09:30:20.826Z,1009.68
2016-06-25T09:31:20.823Z,1009.69
2016-06-25T09:32:20.829Z,1009.64
2016-06-25T09:33:20.834Z,1009.63
2016-06-25T09:34:20.844Z,1009.62
2016-06-25T09:35:20.837Z,1009.64
2016-06-25T09:36:20.841Z,1009.62
2016-06-25T09:37:20.838Z,1009.67
2016-06-25T09:38:20.838Z,1009.64
2016-06-25T09:39:20.846Z,1009.62
2016-06-25T09:40:20.838Z,1009.63
2016-06-25T09:41:20.838Z,1009.61
2016-06-25T09:42:20.847Z,1009.59
2016-06-25T09:43:20.850Z,1009.57
2016-06-25T09:44:20.870Z,1009.57
2016-06-25T09:45:20.853Z,1009.55
2016-06-25T09:46:20.856Z,1009.54
2016-06-25T09:47:20.849Z,1009.56
2016-06-25T09:48:21.418Z,1009.57
2016-06-25T09:49:20.851Z,1009.53
2016-06-25T09:50:20.857Z,1009.54
2016-06-25T09:51:20.855Z,1009.54
2016-06-25T09:52:20.856Z,1009.52
2016-06-25T09:53:20.861Z,1009.47
2016-06-25T09:54:20.863Z,1009.45
2016-06-25T09:55:20.862Z,1009.45
2016-06-25T09:56:20.867Z,1009.48
2016-06-25T09:57:20.864Z,1009.47
2016-06-25T09:58:21.071Z,1009.5
2016-06-25T09:59:20.869Z,1009.51
2016-06-25T10:00:20.872Z,1009.49
2016-06-25T10:01:20.873Z,1009.48
2016-06-25T10:02:20.923Z,1009.41
2016-06-25T10:03:20.879Z,1009.41
2016-06-25T10:04:21.075Z,1009.36
2016-06-25T10:05:20.879Z,1009.34
2016-06-25T10:06:20.882Z,1009.33
2016-06-25T10:07:20.877Z,1009.33
2016-06-25T10:08:20.877Z,1009.29
2016-06-25T10:09:20.880Z,1009.26
2016-06-25T10:10:20.887Z,1009.24
2016-06-25T10:11:20.884Z,1009.24
2016-06-25T10:12:20.886Z,1009.23
2016-06-25T10:13:20.895Z,1009.18
2016-06-25T10:14:20.894Z,1009.21
2016-06-25T10:15:20.890Z,1009.19
2016-06-25T10:16:20.894Z,1009.19
2016-06-25T10:17:21.097Z,1009.23
2016-06-25T10:18:20.896Z,1009.2
2016-06-25T10:19:20.900Z,1009.24
2016-06-25T10:20:20.901Z,1009.23
2016-06-25T10:21:20.904Z,1009.22
2016-06-25T10:22:20.899Z,1009.27
2016-06-25T10:23:20.899Z,1009.24
2016-06-25T10:24:20.904Z,1009.27
2016-06-25T10:25:21.153Z,1009.29
2016-06-25T10:26:20.907Z,1009.29
2016-06-25T10:27:20.906Z,1009.26
2016-06-25T10:28:20.908Z,1009.29
2016-06-25T10:29:20.935Z,1009.34
2016-06-25T10:30:20.905Z,1009.32
2016-06-25T10:31:20.918Z,1009.36
2016-06-25T10:32:20.911Z,1009.36
2016-06-25T10:33:20.917Z,1009.35
2016-06-25T10:34:20.914Z,1009.35
2016-06-25T10:35:20.913Z,1009.33
2016-06-25T10:36:20.914Z,1009.35
2016-06-25T10:37:20.923Z,1009.38
2016-06-25T10:38:20.916Z,1009.36
2016-06-25T10:39:20.925Z,1009.36
2016-06-25T10:40:20.926Z,1009.35
2016-06-25T10:41:20.926Z,1009.4
2016-06-25T10:42:20.930Z,1009.38
2016-06-25T10:43:20.930Z,1009.37
2016-06-25T10:44:21.130Z,1009.39
2016-06-25T10:45:20.928Z,1009.39
2016-06-25T10:46:20.934Z,1009.45
2016-06-25T10:47:20.933Z,1009.44
2016-06-25T10:48:20.931Z,1009.44
2016-06-25T10:49:20.935Z,1009.44
2016-06-25T10:50:20.936Z,1009.46
2016-06-25T10:51:20.935Z,1009.41
2016-06-25T10:52:20.947Z,1009.46
2016-06-25T10:53:20.944Z,1009.43
2016-06-25T10:54:20.940Z,1009.45
2016-06-25T10:55:20.947Z,1009.46
2016-06-25T10:56:20.947Z,1009.44
2016-06-25T10:57:20.951Z,1009.51
2016-06-25T10:58:20.949Z,1009.53
2016-06-25T10:59:20.947Z,1009.52
2016-06-25T11:00:20.950Z,1009.5
2016-06-25T11:01:20.950Z,1009.5
2016-06-25T11:02:21.008Z,1009.48
2016-06-25T11:03:20.956Z,1009.52
2016-06-25T11:04:20.956Z,1009.5
2016-06-25T11:05:20.958Z,1009.51
2016-06-25T11:06:20.954Z,1009.49
2016-06-25T11:07:20.966Z,1009.49
2016-06-25T11:08:20.959Z,1009.41
2016-06-25T11:09:20.954Z,1009.41
2016-06-25T11:10:20.961Z,1009.4
2016-06-25T11:11:21.167Z,1009.4
2016-06-25T11:13:20.967Z,1009.42
2016-06-25T11:14:20.963Z,1009.37
2016-06-25T11:15:20.965Z,1009.42
2016-06-25T11:16:20.971Z,1009.41
2016-06-25T11:17:20.976Z,1009.41
2016-06-25T11:18:20.978Z,1009.43
2016-06-25T11:19:21.008Z,1009.38
2016-06-25T11:20:20.975Z,1009.4
2016-06-25T11:21:20.979Z,1009.37
2016-06-25T11:22:20.979Z,1009.41
2016-06-25T11:23:21.190Z,1009.37
2016-06-25T11:24:20.983Z,1009.36
2016-06-25T11:25:20.986Z,1009.41
2016-06-25T11:26:20.990Z,1009.38
2016-06-25T11:27:20.984Z,1009.41
2016-06-25T11:28:20.980Z,1009.38
2016-06-25T11:29:20.991Z,1009.39
2016-06-25T11:30:20.989Z,1009.33
2016-06-25T11:31:21.001Z,1009.34
2016-06-25T11:32:20.997Z,1009.36
2016-06-25T11:33:20.990Z,1009.31
2016-06-25T11:34:20.992Z,1009.35
2016-06-25T11:35:20.994Z,1009.34
2016-06-25T11:36:20.994Z,1009.35
2016-06-25T11:37:20.998Z,1009.31
2016-06-25T11:38:20.995Z,1009.3
2016-06-25T11:39:20.996Z,1009.29
2016-06-25T11:40:21.013Z,1009.27
2016-06-25T11:41:21.003Z,1009.24
2016-06-25T11:42:20.999Z,1009.3
2016-06-25T11:43:21.002Z,1009.24
2016-06-25T11:44:21.007Z,1009.24
2016-06-25T11:45:21.011Z,1009.21
2016-06-25T11:46:21.014Z,1009.24
2016-06-25T11:47:21.015Z,1009.23
2016-06-25T11:48:21.014Z,1009.18
2016-06-25T11:49:21.010Z,1009.23
2016-06-25T11:50:21.031Z,1009.17
2016-06-25T11:51:21.019Z,1009.14
2016-06-25T11:52:21.018Z,1009.12
2016-06-25T11:53:21.021Z,1009.13
2016-06-25T11:54:21.020Z,1009.09
2016-06-25T11:55:21.020Z,1009.08
2016-06-25T11:56:21.022Z,1009.08
2016-06-25T11:57:21.022Z,1009.08
2016-06-25T11:58:21.026Z,1009.1
2016-06-25T11:59:21.029Z,1009.08
2016-06-25T12:00:21.027Z,1009.02
2016-06-25T12:01:21.028Z,1009.08
2016-06-25T12:02:21.035Z,1009.04
2016-06-25T12:03:21.030Z,1009.05
2016-06-25T12:04:21.030Z,1009.05
2016-06-25T12:05:21.035Z,1009.04
2016-06-25T12:06:21.033Z,1009.02
2016-06-25T12:07:21.036Z,1009.03
2016-06-25T12:08:21.037Z,1009